createdAt,value
2023-04-12T00:00:02.862Z,8.26
2023-04-12T00:01:03.035Z,8.26
2023-04-12T00:02:03.230Z,8.24
2023-04-12T00:03:03.486Z,8.24
2023-04-12T00:04:03.736Z,8.23
2023-04-12T00:05:03.801Z,8.19
2023-04-12T00:06:03.881Z,8.18
2023-04-12T00:07:04.083Z,8.19
2023-04-12T00:08:04.242Z,8.15
2023-04-12T00:09:04.422Z,8.13
2023-04-12T00:10:04.573Z,8.12
2023-04-12T00:11:04.742Z,8.13
2023-04-12T00:12:04.921Z,8.12
2023-04-12T00:13:05.088Z,8.13
2023-04-12T00:14:05.248Z,8.12
2023-04-12T00:15:07.881Z,8.10
2023-04-12T00:16:05.712Z,8.12
2023-04-12T00:17:05.834Z,8.12
2023-04-12T00:18:06.008Z,8.10
2023-04-12T00:19:06.142Z,8.12
2023-04-12T00:20:06.322Z,8.10
2023-04-12T00:21:06.473Z,8.10
2023-04-12T00:22:06.659Z,8.10
2023-04-12T00:23:06.823Z,8.09
2023-04-12T00:24:06.971Z,8.12
2023-04-12T00:25:07.163Z,8.09
2023-04-12T00:26:07.339Z,8.09
2023-04-12T00:27:07.501Z,8.09
2023-04-12T00:28:07.685Z,8.09
2023-04-12T00:29:07.829Z,8.10
2023-04-12T00:30:07.992Z,8.09
2023-04-12T00:31:08.200Z,8.08
2023-04-12T00:32:08.337Z,8.08
2023-04-12T00:33:08.508Z,8.08
2023-04-12T00:34:08.669Z,8.06
2023-04-12T00:35:08.828Z,8.06
2023-04-12T00:36:09.082Z,8.03
2023-04-12T00:37:09.195Z,8.03
2023-04-12T00:38:09.360Z,8.00
2023-04-12T00:39:09.530Z,8.00
2023-04-12T00:40:09.713Z,8.01
2023-04-12T00:41:09.865Z,7.98
2023-04-12T00:42:10.047Z,7.98
2023-04-12T00:43:10.226Z,7.94
2023-04-12T00:44:10.408Z,7.93
2023-04-12T00:45:10.564Z,7.94
2023-04-12T00:46:10.793Z,7.91
2023-04-12T00:47:10.946Z,7.88
2023-04-12T00:48:11.109Z,7.87
2023-04-12T00:49:11.269Z,7.87
2023-04-12T00:50:11.435Z,7.82
2023-04-12T00:51:11.631Z,7.77
2023-04-12T00:52:11.791Z,7.80
2023-04-12T00:53:11.960Z,7.79
2023-04-12T00:54:12.132Z,7.76
2023-04-12T00:55:12.292Z,7.77
2023-04-12T00:56:12.467Z,7.79
2023-04-12T00:57:12.630Z,7.77
2023-04-12T00:58:12.790Z,7.80
2023-04-12T00:59:12.946Z,7.80
2023-04-12T01:00:13.158Z,7.80
2023-04-12T01:01:13.463Z,7.80
2023-04-12T01:02:13.595Z,7.79
2023-04-12T01:03:13.845Z,7.80
2023-04-12T01:04:13.983Z,7.80
2023-04-12T01:05:14.026Z,7.77
2023-04-12T01:06:14.242Z,7.77
2023-04-12T01:07:14.439Z,7.77
2023-04-12T01:08:14.573Z,7.75
2023-04-12T01:09:14.745Z,7.72
2023-04-12T01:10:14.911Z,7.75
2023-04-12T01:11:15.072Z,7.70
2023-04-12T01:12:15.262Z,7.73
2023-04-12T01:13:15.423Z,7.72
2023-04-12T01:14:15.579Z,7.70
2023-04-12T01:15:15.749Z,7.69
2023-04-12T01:16:15.926Z,7.67
2023-04-12T01:17:16.082Z,7.63
2023-04-12T01:18:16.246Z,7.61
2023-04-12T01:19:16.403Z,7.61
2023-04-12T01:20:16.600Z,7.60
2023-04-12T01:21:16.773Z,7.58
2023-04-12T01:22:16.954Z,7.56
2023-04-12T01:23:17.116Z,7.53
2023-04-12T01:24:17.274Z,7.53
2023-04-12T01:25:17.432Z,7.53
2023-04-12T01:26:17.714Z,7.50
2023-04-12T01:27:17.766Z,7.47
2023-04-12T01:28:17.953Z,7.50
2023-04-12T01:29:18.133Z,7.47
2023-04-12T01:30:18.257Z,7.45
2023-04-12T01:31:18.456Z,7.43
2023-04-12T01:32:18.620Z,7.39
2023-04-12T01:33:18.770Z,7.39
2023-04-12T01:34:18.947Z,7.39
2023-04-12T01:35:19.155Z,7.39
2023-04-12T01:36:19.303Z,7.35
2023-04-12T01:37:19.469Z,7.35
2023-04-12T01:38:19.637Z,7.35
2023-04-12T01:39:19.814Z,7.32
2023-04-12T01:40:20.017Z,7.29
2023-04-12T01:41:20.216Z,7.24
2023-04-12T01:42:20.354Z,7.24
2023-04-12T01:43:20.527Z,7.21
2023-04-12T01:44:20.711Z,7.21
2023-04-12T01:45:20.877Z,7.23
2023-04-12T01:46:21.048Z,7.18
2023-04-12T01:47:21.213Z,7.15
2023-04-12T01:48:21.398Z,7.13
2023-04-12T01:49:21.558Z,7.11
2023-04-12T01:50:21.718Z,7.07
2023-04-12T01:51:21.907Z,7.05
2023-04-12T01:52:22.084Z,7.05
2023-04-12T01:53:22.224Z,7.05
2023-04-12T01:54:22.421Z,7.05
2023-04-12T01:55:22.607Z,7.07
2023-04-12T01:56:22.781Z,7.06
2023-04-12T01:57:22.937Z,7.06
2023-04-12T01:58:23.119Z,7.05
2023-04-12T01:59:23.270Z,7.06
2023-04-12T02:00:23.446Z,7.05
2023-04-12T02:01:23.659Z,7.05
2023-04-12T02:02:23.839Z,7.05
2023-04-12T02:03:24.062Z,7.05
2023-04-12T02:04:24.114Z,7.03
2023-04-12T02:05:24.266Z,7.02
2023-04-12T02:06:24.484Z,7.02
2023-04-12T02:07:24.641Z,7.00
2023-04-12T02:08:24.801Z,6.99
2023-04-12T02:09:24.968Z,6.99
2023-04-12T02:10:25.138Z,6.97
2023-04-12T02:11:25.314Z,6.97
2023-04-12T02:12:25.492Z,6.96
2023-04-12T02:13:25.642Z,6.96
2023-04-12T02:14:25.800Z,6.95
2023-04-12T02:15:25.969Z,6.93
2023-04-12T02:16:26.222Z,6.92
2023-04-12T02:17:26.348Z,6.84
2023-04-12T02:18:26.479Z,6.82
2023-04-12T02:19:26.654Z,6.78
2023-04-12T02:20:26.834Z,6.75
2023-04-12T02:21:27.008Z,6.74
2023-04-12T02:22:27.167Z,6.70
2023-04-12T02:23:27.357Z,6.69
2023-04-12T02:24:27.542Z,6.70
2023-04-12T02:25:27.699Z,6.69
2023-04-12T02:26:27.912Z,6.67
2023-04-12T02:27:28.064Z,6.63
2023-04-12T02:28:28.232Z,6.63
2023-04-12T02:29:28.421Z,6.60
2023-04-12T02:30:28.607Z,6.62
2023-04-12T02:31:28.748Z,6.62
2023-04-12T02:32:28.947Z,6.60
2023-04-12T02:33:29.069Z,6.59
2023-04-12T02:34:29.244Z,6.57
2023-04-12T02:35:29.401Z,6.54
2023-04-12T02:36:29.606Z,6.52
2023-04-12T02:37:29.773Z,6.54
2023-04-12T02:38:29.931Z,6.51
2023-04-12T02:39:30.101Z,6.48
2023-04-12T02:40:30.286Z,6.49
2023-04-12T02:41:30.454Z,6.48
2023-04-12T02:42:30.642Z,6.46
2023-04-12T02:43:30.748Z,6.46
2023-04-12T02:44:31.000Z,6.45
2023-04-12T02:45:31.119Z,6.46
2023-04-12T02:46:31.431Z,6.48
2023-04-12T02:47:31.493Z,6.49
2023-04-12T02:48:31.672Z,6.49
2023-04-12T02:49:31.852Z,6.45
2023-04-12T02:50:32.024Z,6.39
2023-04-12T02:51:32.173Z,6.38
2023-04-12T02:52:32.366Z,6.38
2023-04-12T02:53:32.519Z,6.36
2023-04-12T02:54:32.686Z,6.36
2023-04-12T02:55:32.853Z,6.35
2023-04-12T02:56:33.028Z,6.38
2023-04-12T02:57:33.210Z,6.36
2023-04-12T02:58:33.350Z,6.35
2023-04-12T02:59:33.519Z,6.38
2023-04-12T03:00:33.675Z,6.36
2023-04-12T03:01:33.925Z,6.38
2023-04-12T03:02:34.120Z,6.39
2023-04-12T03:03:34.394Z,6.42
2023-04-12T03:04:34.440Z,6.41
2023-04-12T03:05:34.525Z,6.38
2023-04-12T03:06:34.675Z,6.39
2023-04-12T03:07:34.852Z,6.38
2023-04-12T03:08:35.009Z,6.36
2023-04-12T03:09:35.180Z,6.35
2023-04-12T03:10:35.335Z,6.31
2023-04-12T03:11:35.516Z,6.33
2023-04-12T03:12:35.685Z,6.30
2023-04-12T03:13:35.862Z,6.30
2023-04-12T03:14:36.022Z,6.27
2023-04-12T03:15:36.196Z,6.26
2023-04-12T03:16:36.348Z,6.26
2023-04-12T03:17:36.560Z,6.24
2023-04-12T03:18:36.746Z,6.24
2023-04-12T03:19:36.864Z,6.22
2023-04-12T03:20:37.014Z,6.20
2023-04-12T03:21:37.227Z,6.19
2023-04-12T03:22:37.349Z,6.17
2023-04-12T03:23:37.512Z,6.20
2023-04-12T03:24:37.690Z,6.19
2023-04-12T03:25:37.862Z,6.19
2023-04-12T03:26:38.037Z,6.16
2023-04-12T03:27:38.208Z,6.19
2023-04-12T03:28:38.385Z,6.17
2023-04-12T03:29:38.575Z,6.19
2023-04-12T03:30:38.720Z,6.16
2023-04-12T03:31:38.941Z,6.19
2023-04-12T03:32:39.145Z,6.17
2023-04-12T03:33:39.257Z,6.14
2023-04-12T03:34:39.421Z,6.14
2023-04-12T03:35:39.603Z,6.11
2023-04-12T03:36:39.752Z,6.08
2023-04-12T03:37:39.923Z,6.04
2023-04-12T03:38:40.085Z,6.04
2023-04-12T03:39:40.253Z,6.04
2023-04-12T03:40:40.418Z,6.05
2023-04-12T03:41:40.627Z,6.05
2023-04-12T03:42:40.787Z,6.05
2023-04-12T03:43:40.952Z,6.05
2023-04-12T03:44:41.135Z,6.04
2023-04-12T03:45:41.302Z,6.01
2023-04-12T03:46:41.495Z,5.97
2023-04-12T03:47:41.682Z,5.93
2023-04-12T03:48:41.800Z,5.90
2023-04-12T03:49:42.001Z,5.90
2023-04-12T03:50:42.166Z,5.90
2023-04-12T03:51:42.366Z,5.87
2023-04-12T03:52:42.518Z,5.87
2023-04-12T03:53:42.682Z,5.91
2023-04-12T03:54:42.861Z,5.91
2023-04-12T03:55:43.050Z,5.93
2023-04-12T03:56:44.918Z,5.94
2023-04-12T03:57:43.408Z,5.94
2023-04-12T03:58:43.548Z,5.97
2023-04-12T03:59:43.701Z,5.97
2023-04-12T04:00:43.890Z,5.97
2023-04-12T04:01:44.122Z,5.98
2023-04-12T04:02:44.367Z,5.97
2023-04-12T04:03:44.888Z,5.98
2023-04-12T04:04:44.605Z,5.98
2023-04-12T04:05:44.783Z,5.99
2023-04-12T04:06:44.966Z,5.98
2023-04-12T04:07:45.168Z,5.98
2023-04-12T04:08:45.312Z,5.93
2023-04-12T04:09:45.491Z,5.91
2023-04-12T04:10:45.648Z,5.91
2023-04-12T04:11:45.866Z,5.89
2023-04-12T04:12:46.024Z,5.90
2023-04-12T04:13:46.167Z,5.89
2023-04-12T04:14:46.356Z,5.90
2023-04-12T04:15:46.545Z,5.91
2023-04-12T04:16:46.753Z,5.90
2023-04-12T04:17:46.920Z,5.86
2023-04-12T04:18:47.071Z,5.89
2023-04-12T04:19:47.260Z,5.90
2023-04-12T04:20:47.427Z,5.93
2023-04-12T04:21:47.630Z,5.91
2023-04-12T04:22:47.820Z,5.91
2023-04-12T04:23:48.098Z,5.91
2023-04-12T04:24:48.182Z,5.89
2023-04-12T04:25:48.344Z,5.87
2023-04-12T04:26:48.524Z,5.87
2023-04-12T04:27:48.735Z,5.86
2023-04-12T04:28:48.894Z,5.86
2023-04-12T04:29:49.064Z,5.86
2023-04-12T04:30:49.243Z,5.89
2023-04-12T04:31:49.461Z,5.91
2023-04-12T04:32:49.625Z,5.93
2023-04-12T04:33:49.753Z,5.93
2023-04-12T04:34:49.947Z,5.97
2023-04-12T04:35:50.149Z,5.97
2023-04-12T04:36:50.275Z,5.99
2023-04-12T04:37:50.469Z,5.99
2023-04-12T04:38:50.617Z,6.01
2023-04-12T04:39:50.814Z,6.04
2023-04-12T04:40:50.959Z,6.07
2023-04-12T04:41:51.130Z,6.14
2023-04-12T04:42:51.317Z,6.24
2023-04-12T04:43:51.494Z,6.30
2023-04-12T04:44:51.679Z,6.39
2023-04-12T04:45:51.869Z,6.46
2023-04-12T04:46:52.040Z,6.52
2023-04-12T04:47:52.270Z,6.59
2023-04-12T04:48:52.370Z,6.69
2023-04-12T04:49:52.553Z,6.79
2023-04-12T04:50:52.722Z,6.88
2023-04-12T04:51:52.923Z,6.96
2023-04-12T04:52:53.100Z,7.05
2023-04-12T04:53:53.264Z,7.15
2023-04-12T04:54:53.436Z,7.29
2023-04-12T04:55:53.597Z,7.40
2023-04-12T04:56:53.748Z,7.57
2023-04-12T04:57:53.953Z,7.75
2023-04-12T04:58:56.355Z,7.93
2023-04-12T04:59:54.328Z,8.13
2023-04-12T05:00:54.488Z,8.30
2023-04-12T05:01:54.672Z,8.45
2023-04-12T05:02:55.031Z,8.61
2023-04-12T05:03:55.129Z,8.78
2023-04-12T05:04:55.147Z,8.88
2023-04-12T05:05:55.346Z,9.02
2023-04-12T05:06:55.511Z,9.21
2023-04-12T05:07:55.711Z,9.36
2023-04-12T05:08:56.093Z,9.51
2023-04-12T05:09:56.015Z,9.72
2023-04-12T05:10:56.189Z,9.92
2023-04-12T05:11:56.362Z,10.09
2023-04-12T05:12:56.556Z,10.28
2023-04-12T05:13:56.719Z,10.42
2023-04-12T05:15:10.570Z,10.60
2023-04-12T05:15:58.082Z,10.76
2023-04-12T05:16:57.296Z,10.92
2023-04-12T05:17:57.423Z,11.05
2023-04-12T05:18:57.701Z,11.18
2023-04-12T05:19:57.722Z,11.33
2023-04-12T05:20:57.916Z,11.44
2023-04-12T05:21:58.103Z,11.41
2023-04-12T05:22:58.258Z,11.51
2023-04-12T05:23:58.426Z,11.59
2023-04-12T05:24:58.592Z,11.70
2023-04-12T05:25:58.774Z,11.87
2023-04-12T05:26:58.970Z,12.07
2023-04-12T05:27:59.116Z,12.24
2023-04-12T05:28:59.307Z,12.36
2023-04-12T05:29:59.471Z,12.47
2023-04-12T05:30:59.665Z,12.57
2023-04-12T05:31:59.825Z,12.65
2023-04-12T05:33:00.046Z,12.75
2023-04-12T05:34:00.168Z,12.79
2023-04-12T05:35:00.338Z,12.78
2023-04-12T05:36:00.561Z,12.72
2023-04-12T05:37:00.676Z,12.64
2023-04-12T05:38:00.863Z,12.53
2023-04-12T05:39:01.035Z,12.47
2023-04-12T05:40:01.219Z,12.39
2023-04-12T05:41:01.381Z,12.37
2023-04-12T05:42:01.581Z,12.29
2023-04-12T05:43:01.759Z,12.13
2023-04-12T05:44:01.904Z,11.99
2023-04-12T05:45:02.075Z,11.86
2023-04-12T05:46:02.296Z,11.87
2023-04-12T05:47:02.470Z,12.02
2023-04-12T05:48:02.663Z,12.10
2023-04-12T05:49:02.828Z,12.04
2023-04-12T05:50:03.856Z,12.00
2023-04-12T05:51:03.122Z,11.88
2023-04-12T05:52:03.381Z,11.86
2023-04-12T05:53:03.480Z,11.88
2023-04-12T05:54:03.640Z,11.91
2023-04-12T05:55:03.799Z,11.81
2023-04-12T05:56:04.017Z,11.75
2023-04-12T05:57:04.178Z,11.78
2023-04-12T05:58:04.357Z,11.86
2023-04-12T05:59:04.553Z,11.87
2023-04-12T06:00:04.724Z,11.81
2023-04-12T06:01:04.913Z,11.73
2023-04-12T06:02:05.214Z,11.60
2023-04-12T06:03:05.414Z,11.51
2023-04-12T06:04:05.600Z,11.60
2023-04-12T06:05:05.760Z,11.83
2023-04-12T06:06:05.804Z,12.12
2023-04-12T06:07:05.943Z,12.36
2023-04-12T06:08:06.106Z,12.57
2023-04-12T06:09:06.355Z,12.70
2023-04-12T06:10:06.603Z,12.79
2023-04-12T06:11:06.651Z,12.85
2023-04-12T06:12:06.884Z,12.85
2023-04-12T06:13:06.988Z,12.91
2023-04-12T06:14:07.170Z,12.97
2023-04-12T06:15:07.355Z,12.79
2023-04-12T06:16:07.541Z,12.67
2023-04-12T06:17:07.710Z,12.47
2023-04-12T06:18:07.927Z,12.50
2023-04-12T06:19:08.053Z,12.58
2023-04-12T06:20:08.242Z,12.68
2023-04-12T06:21:08.424Z,12.73
2023-04-12T06:22:08.595Z,12.75
2023-04-12T06:23:08.725Z,12.80
2023-04-12T06:24:08.920Z,12.91
2023-04-12T06:25:09.101Z,13.04
2023-04-12T06:26:09.282Z,13.11
2023-04-12T06:27:09.474Z,13.16
2023-04-12T06:28:09.652Z,13.16
2023-04-12T06:29:09.808Z,13.23
2023-04-12T06:30:10.002Z,13.33
2023-04-12T06:31:10.215Z,13.44
2023-04-12T06:32:10.373Z,13.49
2023-04-12T06:33:10.592Z,13.41
2023-04-12T06:34:10.683Z,13.37
2023-04-12T06:35:10.880Z,13.33
2023-04-12T06:36:11.053Z,13.27
2023-04-12T06:37:11.224Z,13.15
2023-04-12T06:38:11.400Z,13.03
2023-04-12T06:39:11.584Z,12.80
2023-04-12T06:40:11.760Z,12.67
2023-04-12T06:41:11.945Z,12.58
2023-04-12T06:42:14.382Z,12.55
2023-04-12T06:43:12.282Z,12.54
2023-04-12T06:44:12.454Z,12.58
2023-04-12T06:45:12.639Z,12.61
2023-04-12T06:46:12.826Z,12.64
2023-04-12T06:47:13.054Z,12.78
2023-04-12T06:48:13.162Z,12.97
2023-04-12T06:49:13.348Z,13.20
2023-04-12T06:50:13.542Z,13.28
2023-04-12T06:51:13.844Z,13.42
2023-04-12T06:52:13.880Z,13.46
2023-04-12T06:53:14.034Z,13.53
2023-04-12T06:54:14.206Z,13.71
2023-04-12T06:55:14.353Z,13.96
2023-04-12T06:56:16.016Z,14.28
2023-04-12T06:57:14.740Z,14.58
2023-04-12T06:58:14.922Z,14.78
2023-04-12T06:59:15.083Z,14.82
2023-04-12T07:00:15.333Z,14.91
2023-04-12T07:01:15.485Z,15.04
2023-04-12T07:02:15.721Z,15.21
2023-04-12T07:03:15.883Z,15.39
2023-04-12T07:04:16.198Z,15.51
2023-04-12T07:05:16.160Z,15.65
2023-04-12T07:06:25.121Z,15.68
2023-04-12T07:07:17.496Z,15.84
2023-04-12T07:08:16.669Z,15.98
2023-04-12T07:09:16.825Z,16.21
2023-04-12T07:10:16.982Z,16.47
2023-04-12T07:11:21.465Z,16.69
2023-04-12T07:12:17.326Z,16.89
2023-04-12T07:13:17.538Z,16.86
2023-04-12T07:14:17.658Z,17.04
2023-04-12T07:15:17.829Z,17.31
2023-04-12T07:16:18.045Z,17.65
2023-04-12T07:17:18.257Z,17.90
2023-04-12T07:18:18.370Z,18.04
2023-04-12T07:19:18.505Z,18.34
2023-04-12T07:20:18.691Z,18.70
2023-04-12T07:21:18.867Z,19.04
2023-04-12T07:22:19.045Z,19.29
2023-04-12T07:23:19.193Z,19.56
2023-04-12T07:24:19.372Z,19.79
2023-04-12T07:25:19.525Z,19.71
2023-04-12T07:26:19.718Z,19.62
2023-04-12T07:27:19.887Z,19.59
2023-04-12T07:28:20.049Z,19.69
2023-04-12T07:29:20.229Z,19.71
2023-04-12T07:30:20.412Z,19.70
2023-04-12T07:31:20.574Z,19.64
2023-04-12T07:32:20.953Z,19.62
2023-04-12T07:33:21.010Z,19.58
2023-04-12T07:34:21.199Z,19.39
2023-04-12T07:35:21.252Z,19.00
2023-04-12T07:36:21.545Z,18.74
2023-04-12T07:37:21.613Z,18.74
2023-04-12T07:38:21.804Z,18.90
2023-04-12T07:39:22.024Z,19.16
2023-04-12T07:40:22.154Z,19.40
2023-04-12T07:41:22.345Z,19.52
2023-04-12T07:42:22.533Z,19.74
2023-04-12T07:43:22.785Z,20.06
2023-04-12T07:44:22.891Z,20.41
2023-04-12T07:45:23.062Z,20.93
2023-04-12T07:46:23.312Z,21.51
2023-04-12T07:47:23.453Z,22.11
2023-04-12T07:48:23.589Z,22.60
2023-04-12T07:49:23.768Z,22.85
2023-04-12T07:50:23.955Z,23.09
2023-04-12T07:51:24.176Z,23.10
2023-04-12T07:52:24.313Z,23.12
2023-04-12T07:53:24.489Z,23.13
2023-04-12T07:54:24.676Z,23.20
2023-04-12T07:55:24.848Z,23.06
2023-04-12T07:56:25.048Z,23.10
2023-04-12T07:57:25.225Z,23.17
2023-04-12T07:58:25.407Z,23.44
2023-04-12T07:59:25.558Z,23.81
2023-04-12T08:00:25.787Z,24.18
2023-04-12T08:01:25.909Z,24.32
2023-04-12T08:02:26.314Z,24.24
2023-04-12T08:03:26.336Z,24.23
2023-04-12T08:04:26.488Z,24.03
2023-04-12T08:05:26.625Z,23.99
2023-04-12T08:06:30.029Z,24.10
2023-04-12T08:07:26.955Z,24.01
2023-04-12T08:08:27.104Z,24.05
2023-04-12T08:09:27.290Z,24.16
2023-04-12T08:10:27.441Z,24.17
2023-04-12T08:11:27.647Z,24.08
2023-04-12T08:12:27.785Z,24.01
2023-04-12T08:13:27.988Z,24.16
2023-04-12T08:14:28.146Z,24.28
2023-04-12T08:15:28.342Z,24.45
2023-04-12T08:16:28.562Z,24.70
2023-04-12T08:17:28.781Z,24.93
2023-04-12T08:18:28.862Z,25.16
2023-04-12T08:19:29.036Z,24.99
2023-04-12T08:20:29.235Z,24.84
2023-04-12T08:21:29.387Z,24.58
2023-04-12T08:22:29.546Z,24.63
2023-04-12T08:23:29.721Z,24.80
2023-04-12T08:24:29.902Z,25.07
2023-04-12T08:25:30.083Z,25.08
2023-04-12T08:26:30.285Z,25.28
2023-04-12T08:27:30.430Z,25.43
2023-04-12T08:28:30.598Z,25.47
2023-04-12T08:29:30.769Z,25.51
2023-04-12T08:30:30.954Z,25.59
2023-04-12T08:31:31.224Z,25.80
2023-04-12T08:32:31.303Z,25.77
2023-04-12T08:33:31.446Z,25.84
2023-04-12T08:34:31.618Z,26.18
2023-04-12T08:35:31.958Z,26.62
2023-04-12T08:36:31.966Z,27.02
2023-04-12T08:37:32.134Z,27.47
2023-04-12T08:39:33.483Z,28.37
2023-04-12T08:40:32.659Z,28.60
2023-04-12T08:41:32.854Z,28.63
2023-04-12T08:42:33.001Z,28.38
2023-04-12T08:43:33.192Z,28.23
2023-04-12T08:44:33.351Z,28.12
2023-04-12T08:45:33.543Z,28.07
2023-04-12T08:46:33.774Z,28.10
2023-04-12T08:47:33.973Z,28.32
2023-04-12T08:48:34.093Z,28.49
2023-04-12T08:49:34.274Z,28.76
2023-04-12T08:50:34.505Z,29.08
2023-04-12T08:51:34.661Z,29.34
2023-04-12T08:52:34.808Z,29.57
2023-04-12T08:53:35.004Z,29.81
2023-04-12T08:54:35.174Z,29.94
2023-04-12T08:55:35.362Z,30.10
2023-04-12T08:56:35.552Z,30.40
2023-04-12T08:57:35.759Z,30.80
2023-04-12T08:58:35.880Z,31.03
2023-04-12T08:59:36.057Z,31.22
2023-04-12T09:00:36.220Z,31.14
2023-04-12T09:01:36.437Z,31.07
2023-04-12T09:02:36.706Z,30.96
2023-04-12T09:03:36.884Z,30.70
2023-04-12T09:04:37.109Z,30.78
2023-04-12T09:05:37.100Z,30.97
2023-04-12T09:06:37.268Z,30.87
2023-04-12T09:07:37.432Z,30.75
2023-04-12T09:08:37.598Z,30.51
2023-04-12T09:09:37.786Z,30.25
2023-04-12T09:10:38.099Z,30.21
2023-04-12T09:11:38.172Z,30.12
2023-04-12T09:12:38.366Z,30.08
2023-04-12T09:13:38.503Z,30.05
2023-04-12T09:14:38.687Z,29.95
2023-04-12T09:15:38.880Z,29.87
2023-04-12T09:16:39.166Z,29.91
2023-04-12T09:17:39.306Z,29.88
2023-04-12T09:18:39.413Z,29.91
2023-04-12T09:19:39.610Z,29.93
2023-04-12T09:20:39.794Z,30.00
2023-04-12T09:21:39.980Z,30.25
2023-04-12T09:22:40.262Z,30.59
2023-04-12T09:23:40.345Z,30.35
2023-04-12T09:24:40.480Z,30.30
2023-04-12T09:25:40.669Z,30.48
2023-04-12T09:26:40.846Z,30.77
2023-04-12T09:27:41.045Z,30.96
2023-04-12T09:28:41.218Z,30.87
2023-04-12T09:29:41.396Z,30.84
2023-04-12T09:30:41.546Z,31.03
2023-04-12T09:31:41.910Z,31.33
2023-04-12T09:32:41.889Z,31.34
2023-04-12T09:33:42.052Z,31.14
2023-04-12T09:34:42.229Z,30.80
2023-04-12T09:35:42.496Z,30.69
2023-04-12T09:36:42.631Z,30.73
2023-04-12T09:37:42.784Z,30.72
2023-04-12T09:38:42.980Z,30.75
2023-04-12T09:39:43.101Z,31.06
2023-04-12T09:40:43.284Z,31.42
2023-04-12T09:41:43.439Z,31.58
2023-04-12T09:42:43.640Z,31.61
2023-04-12T09:43:43.791Z,31.73
2023-04-12T09:44:43.973Z,32.00
2023-04-12T09:45:44.196Z,32.26
2023-04-12T09:46:46.423Z,32.67
2023-04-12T09:47:44.580Z,33.00
2023-04-12T09:48:44.681Z,33.20
2023-04-12T09:49:44.848Z,33.34
2023-04-12T09:50:45.016Z,32.97
2023-04-12T09:51:45.148Z,32.52
2023-04-12T09:52:45.332Z,32.40
2023-04-12T09:53:45.532Z,32.52
2023-04-12T09:54:45.740Z,32.52
2023-04-12T09:55:45.903Z,32.16
2023-04-12T09:56:46.075Z,31.96
2023-04-12T09:57:46.245Z,31.70
2023-04-12T09:58:46.417Z,31.05
2023-04-12T09:59:46.605Z,30.69
2023-04-12T10:00:46.748Z,30.48
2023-04-12T10:01:47.053Z,29.97
2023-04-12T10:02:47.696Z,29.19
2023-04-12T10:03:47.459Z,28.47
2023-04-12T10:04:47.589Z,27.65
2023-04-12T10:05:47.667Z,27.10
2023-04-12T10:06:47.826Z,26.56
2023-04-12T10:07:48.019Z,25.78
2023-04-12T10:08:48.190Z,25.21
2023-04-12T10:09:48.392Z,24.84
2023-04-12T10:10:48.565Z,24.43
2023-04-12T10:11:48.743Z,24.05
2023-04-12T10:12:48.942Z,23.65
2023-04-12T10:13:49.111Z,23.24
2023-04-12T10:14:49.296Z,22.90
2023-04-12T10:15:49.546Z,22.63
2023-04-12T10:16:49.711Z,22.43
2023-04-12T10:17:49.828Z,22.10
2023-04-12T10:18:49.956Z,21.89
2023-04-12T10:19:50.151Z,21.72
2023-04-12T10:20:50.330Z,21.54
2023-04-12T10:21:50.492Z,21.32
2023-04-12T10:22:50.707Z,21.03
2023-04-12T10:23:50.891Z,20.74
2023-04-12T10:24:51.021Z,20.52
2023-04-12T10:25:51.797Z,20.22
2023-04-12T10:26:51.355Z,20.07
2023-04-12T10:27:51.568Z,19.95
2023-04-12T10:28:51.730Z,19.86
2023-04-12T10:29:51.918Z,19.73
2023-04-12T10:30:52.130Z,19.59
2023-04-12T10:31:52.318Z,19.48
2023-04-12T10:32:52.421Z,19.41
2023-04-12T10:33:52.581Z,19.31
2023-04-12T10:34:52.798Z,19.27
2023-04-12T10:35:53.081Z,19.21
2023-04-12T10:36:53.229Z,19.12
2023-04-12T10:37:53.321Z,19.12
2023-04-12T10:38:53.552Z,19.04
2023-04-12T10:39:53.710Z,19.02
2023-04-12T10:40:53.884Z,19.08
2023-04-12T10:41:54.043Z,19.15
2023-04-12T10:42:54.219Z,19.21
2023-04-12T10:43:54.437Z,19.18
2023-04-12T10:44:54.604Z,19.09
2023-04-12T10:45:54.768Z,19.08
2023-04-12T10:46:54.939Z,19.07
2023-04-12T10:47:55.136Z,19.14
2023-04-12T10:48:55.509Z,19.26
2023-04-12T10:49:55.432Z,19.33
2023-04-12T10:50:55.593Z,19.29
2023-04-12T10:51:55.777Z,19.29
2023-04-12T10:52:55.963Z,19.27
2023-04-12T10:53:56.146Z,19.21
2023-04-12T10:54:56.338Z,19.18
2023-04-12T10:55:56.519Z,19.19
2023-04-12T10:56:56.688Z,19.21
2023-04-12T10:57:56.851Z,19.15
2023-04-12T10:58:57.528Z,19.11
2023-04-12T10:59:57.416Z,19.02
2023-04-12T11:00:57.443Z,18.99
2023-04-12T11:01:57.743Z,18.96
2023-04-12T11:02:57.966Z,18.95
2023-04-12T11:03:58.051Z,18.95
2023-04-12T11:04:58.156Z,18.92
2023-04-12T11:05:58.289Z,18.88
2023-04-12T11:06:59.600Z,18.88
2023-04-12T11:07:58.618Z,18.90
2023-04-12T11:08:58.990Z,18.90
2023-04-12T11:09:58.982Z,18.89
2023-04-12T11:10:59.161Z,18.92
2023-04-12T11:11:59.391Z,18.89
2023-04-12T11:12:59.506Z,18.86
2023-04-12T11:13:59.747Z,18.86
2023-04-12T11:14:59.876Z,18.88
2023-04-12T11:16:00.080Z,18.96
2023-04-12T11:17:00.280Z,18.98
2023-04-12T11:18:00.542Z,18.99
2023-04-12T11:19:00.720Z,19.07
2023-04-12T11:20:00.801Z,19.02
2023-04-12T11:21:00.942Z,19.07
2023-04-12T11:22:01.107Z,19.18
2023-04-12T11:23:01.388Z,19.26
2023-04-12T11:24:01.472Z,19.33
2023-04-12T11:25:01.612Z,19.41
2023-04-12T11:26:01.783Z,19.55
2023-04-12T11:27:02.011Z,19.69
2023-04-12T11:28:02.725Z,19.71
2023-04-12T11:29:02.322Z,19.76
2023-04-12T11:30:02.515Z,19.77
2023-04-12T11:31:02.638Z,19.88
2023-04-12T11:32:02.852Z,19.96
2023-04-12T11:33:03.064Z,19.94
2023-04-12T11:34:03.166Z,19.96
2023-04-12T11:35:03.364Z,20.02
2023-04-12T11:36:03.510Z,20.06
2023-04-12T11:37:03.675Z,20.13
2023-04-12T11:38:03.889Z,20.13
2023-04-12T11:39:04.049Z,20.11
2023-04-12T11:40:04.212Z,20.06
2023-04-12T11:41:04.361Z,20.09
2023-04-12T11:42:04.530Z,20.13
2023-04-12T11:43:04.727Z,20.16
2023-04-12T11:44:04.904Z,20.19
2023-04-12T11:45:12.171Z,20.24
2023-04-12T11:46:06.342Z,20.31
2023-04-12T11:47:05.437Z,20.44
2023-04-12T11:48:05.661Z,20.56
2023-04-12T11:49:05.810Z,20.62
2023-04-12T11:50:05.951Z,20.62
2023-04-12T11:51:11.330Z,20.66
2023-04-12T11:52:07.269Z,20.74
2023-04-12T11:53:06.439Z,20.80
2023-04-12T11:54:06.659Z,20.84
2023-04-12T11:55:07.025Z,20.84
2023-04-12T11:56:06.944Z,20.80
2023-04-12T11:57:07.123Z,20.80
2023-04-12T11:58:07.313Z,20.81
2023-04-12T11:59:07.500Z,20.81
2023-04-12T12:00:07.632Z,20.90
2023-04-12T12:01:07.832Z,20.93
2023-04-12T12:02:21.190Z,20.90
2023-04-12T12:03:09.395Z,20.97
2023-04-12T12:04:08.516Z,21.07
2023-04-12T12:05:08.904Z,21.21
2023-04-12T12:06:09.198Z,21.30
2023-04-12T12:07:09.142Z,21.46
2023-04-12T12:08:09.088Z,21.61
2023-04-12T12:09:09.222Z,21.73
2023-04-12T12:10:09.440Z,21.91
2023-04-12T12:11:09.594Z,22.00
2023-04-12T12:12:09.774Z,22.04
2023-04-12T12:13:09.945Z,22.02
2023-04-12T12:14:10.085Z,21.95
2023-04-12T12:15:10.278Z,21.99
2023-04-12T12:16:10.505Z,22.08
2023-04-12T12:17:10.636Z,22.15
2023-04-12T12:18:10.829Z,22.14
2023-04-12T12:19:10.985Z,22.13
2023-04-12T12:20:11.141Z,22.14
2023-04-12T12:21:11.332Z,22.20
2023-04-12T12:22:11.486Z,22.22
2023-04-12T12:23:11.688Z,22.18
2023-04-12T12:24:11.817Z,22.13
2023-04-12T12:25:11.994Z,22.06
2023-04-12T12:26:19.087Z,22.06
2023-04-12T12:27:13.340Z,22.00
2023-04-12T12:28:12.635Z,22.02
2023-04-12T12:29:12.670Z,22.02
2023-04-12T12:30:12.847Z,22.00
2023-04-12T12:31:13.171Z,22.02
2023-04-12T12:32:13.272Z,22.00
2023-04-12T12:33:13.463Z,21.99
2023-04-12T12:34:13.591Z,22.04
2023-04-12T12:35:13.814Z,22.07
2023-04-12T12:36:13.959Z,22.08
2023-04-12T12:37:14.091Z,22.00
2023-04-12T12:38:14.287Z,21.92
2023-04-12T12:39:14.449Z,21.85
2023-04-12T12:40:14.649Z,21.62
2023-04-12T12:41:14.836Z,21.55
2023-04-12T12:42:14.975Z,21.55
2023-04-12T12:43:15.172Z,21.45
2023-04-12T12:44:15.313Z,21.36
2023-04-12T12:45:15.494Z,21.33
2023-04-12T12:46:15.765Z,21.29
2023-04-12T12:47:15.871Z,21.21
2023-04-12T12:48:16.101Z,21.17
2023-04-12T12:49:16.171Z,21.15
2023-04-12T12:50:16.361Z,21.12
2023-04-12T12:51:16.500Z,21.15
2023-04-12T12:52:17.869Z,21.24
2023-04-12T12:53:16.892Z,21.29
2023-04-12T12:54:28.330Z,21.27
2023-04-12T12:55:18.224Z,21.29
2023-04-12T12:56:17.386Z,21.36
2023-04-12T12:57:17.624Z,21.43
2023-04-12T12:58:17.733Z,21.54
2023-04-12T12:59:17.916Z,21.61
2023-04-12T13:00:18.082Z,21.67
2023-04-12T13:01:18.313Z,21.75
2023-04-12T13:02:18.561Z,21.83
2023-04-12T13:03:18.768Z,21.80
2023-04-12T13:04:18.796Z,21.85
2023-04-12T13:05:18.962Z,21.88